Time;durP1;ratioP1;P1;durP2;ratioP2;P2;SDS_P1;SDS_P2;PMS_P1;PMS_P2;Temp;Humidity;BMP_temperature;BMP_pressure;BME280_temperature;BME280_humidity;BME280_pressure;Samples;Min_cycle;Max_cycle;Signal;HPM_P1;HPM_P2
2022/01/12 00:01:10;;;;;;;21.60;14.65;;;;;;;4.30;65.89;103476.00;5099679;28;20546;-71
2022/01/12 00:03:36;;;;;;;22.02;15.52;;;;;;;4.34;66.12;103495.81;5099855;28;20127;-70
2022/01/12 00:06:03;;;;;;;24.27;14.75;;;;;;;4.35;65.55;103495.66;5098650;28;20115;-70
2022/01/12 00:08:30;;;;;;;21.38;14.48;;;;;;;4.37;65.85;103496.41;5100407;28;20023;-70
2022/01/12 00:10:56;;;;;;;23.20;14.90;;;;;;;4.35;65.60;103494.81;5113367;28;20073;-70
2022/01/12 00:13:23;;;;;;;21.67;14.18;;;;;;;4.35;66.12;103503.91;5118631;28;20015;-70
2022/01/12 00:15:48;;;;;;;23.20;15.90;;;;;;;4.37;65.82;103512.03;5108756;27;20035;-70
2022/01/12 00:18:13;;;;;;;27.10;16.10;;;;;;;4.40;65.81;103503.47;5098942;28;20032;-70
2022/01/12 00:20:39;;;;;;;23.48;15.63;;;;;;;4.38;65.55;103513.75;5105842;27;20390;-70
2022/01/12 00:23:04;;;;;;;24.45;14.82;;;;;;;4.42;66.03;103504.19;5108514;28;20065;-71
2022/01/12 00:25:33;;;;;;;24.00;15.35;;;;;;;4.42;65.82;103505.06;5096896;28;20082;-71
2022/01/12 00:33:26;;;;;;;23.38;15.32;;;;;;;4.43;65.32;103509.53;5113719;27;20115;-71
2022/01/12 00:35:54;;;;;;;24.40;15.55;;;;;;;4.45;65.38;103519.56;5099187;28;20464;-71
2022/01/12 00:38:24;;;;;;;22.50;14.77;;;;;;;4.43;65.73;103525.19;5109904;28;20058;-71
2022/01/12 00:40:52;;;;;;;25.95;16.00;;;;;;;4.46;65.26;103537.78;5117168;28;20028;-71
2022/01/12 00:43:19;;;;;;;26.65;15.93;;;;;;;4.46;65.68;103533.16;5124184;27;20035;-71
2022/01/12 00:45:48;;;;;;;25.02;15.93;;;;;;;4.48;65.74;103531.13;5108333;27;20028;-71
2022/01/12 00:48:15;;;;;;;27.05;15.88;;;;;;;4.45;66.13;103536.91;5111447;27;20020;-71
2022/01/12 00:50:41;;;;;;;22.20;15.70;;;;;;;4.49;66.36;103543.84;5112145;28;20031;-71
2022/01/12 00:53:07;;;;;;;25.17;16.27;;;;;;;4.50;66.54;103550.22;5111450;28;20031;-71
2022/01/12 00:55:33;;;;;;;25.65;16.92;;;;;;;4.50;67.05;103550.22;5102617;27;20437;-71
2022/01/12 00:57:58;;;;;;;23.80;16.15;;;;;;;4.46;67.87;103548.78;5101803;28;20813;-71
2022/01/12 01:00:26;;;;;;;25.52;17.42;;;;;;;4.47;68.51;103556.00;5100237;28;20027;-71
2022/01/12 01:02:51;;;;;;;24.83;16.80;;;;;;;4.45;68.62;103558.06;5096318;28;20467;-71
2022/01/12 01:05:21;;;;;;;29.17;17.75;;;;;;;4.42;69.23;103553.72;5097376;27;20039;-71
2022/01/12 01:07:47;;;;;;;26.77;17.40;;;;;;;4.39;69.62;103559.50;5136491;27;20023;-71
2022/01/12 01:10:18;;;;;;;29.55;17.80;;;;;;;4.39;69.91;103565.84;5121207;27;20020;-71
2022/01/12 01:12:45;;;;;;;25.88;17.65;;;;;;;4.37;70.29;103561.53;5100020;28;20027;-71
2022/01/12 01:15:14;;;;;;;30.30;17.98;;;;;;;4.35;70.35;103566.28;5107786;27;20028;-70
2022/01/12 01:25:44;;;;;;;30.48;18.52;;;;;;;4.33;70.94;103549.97;5119528;27;20087;-71
2022/01/12 01:28:10;;;;;;;31.52;19.35;;;;;;;4.28;71.43;103551.38;5105029;27;20036;-71
2022/01/12 01:30:39;;;;;;;29.48;18.48;;;;;;;4.31;71.51;103546.47;5101680;28;20035;-71
2022/01/12 01:33:07;;;;;;;29.13;19.13;;;;;;;4.28;71.38;103541.25;5113288;28;20402;-71
2022/01/12 01:35:43;;;;;;;26.75;18.33;;;;;;;4.24;71.60;103544.44;5099289;28;20035;-71
2022/01/12 01:38:08;;;;;;;29.10;18.73;;;;;;;4.19;72.03;103562.25;5108422;27;20365;-70
2022/01/12 01:40:36;;;;;;;31.73;20.38;;;;;;;4.17;71.91;103558.78;5105748;28;20050;-72
2022/01/12 01:54:07;;;;;;;31.65;19.77;;;;;;;4.24;71.81;103571.94;5078518;28;20071;-71
2022/01/12 01:56:32;;;;;;;29.85;19.65;;;;;;;4.24;71.86;103560.94;5089810;28;20036;-70
2022/01/12 01:58:58;;;;;;;30.38;20.48;;;;;;;4.24;71.94;103549.94;5104579;27;20045;-71
2022/01/12 02:01:23;;;;;;;35.63;20.30;;;;;;;4.22;72.29;103541.00;5130611;27;20063;-71
2022/01/12 02:03:49;;;;;;;30.58;18.98;;;;;;;4.22;72.15;103539.09;5095666;27;20028;-70
2022/01/12 02:06:15;;;;;;;32.28;20.05;;;;;;;4.17;72.20;103527.69;5106092;28;20024;-70
2022/01/12 02:08:41;;;;;;;30.45;19.65;;;;;;;4.18;71.91;103530.28;5113633;28;20160;-69
2022/01/12 02:11:06;;;;;;;31.08;19.50;;;;;;;4.20;71.95;103538.38;5098926;28;20491;-69
2022/01/12 02:13:32;;;;;;;29.15;19.88;;;;;;;4.21;72.53;103536.50;5100504;28;20418;-71
2022/01/12 02:15:58;;;;;;;31.05;19.33;;;;;;;4.21;72.11;103539.25;5107428;28;20040;-70
2022/01/12 02:40:29;;;;;;;33.45;19.98;;;;;;;4.13;72.83;103571.09;5111201;27;20023;-71
2022/01/12 02:51:34;;;;;;;29.70;19.25;;;;;;;4.17;72.10;103572.53;5091182;28;20042;-71
2022/01/12 02:54:00;;;;;;;34.15;19.92;;;;;;;4.20;72.05;103571.34;5103802;28;20040;-71
2022/01/12 02:56:28;;;;;;;33.42;20.58;;;;;;;4.24;72.10;103572.81;5120496;27;20027;-71
2022/01/12 02:58:59;;;;;;;30.50;19.83;;;;;;;4.23;71.99;103579.31;5125358;27;20024;-70
2022/01/12 03:03:59;;;;;;;32.57;21.03;;;;;;;4.19;72.36;103587.00;5095937;28;20028;-70
2022/01/12 03:06:31;;;;;;;36.42;20.80;;;;;;;4.18;72.38;103588.00;5093845;28;20288;-70
2022/01/12 03:08:57;;;;;;;36.67;21.35;;;;;;;4.23;72.23;103601.31;5097328;28;20032;-70
2022/01/12 03:11:24;;;;;;;34.83;21.15;;;;;;;4.22;72.52;103601.47;5103442;28;20068;-70
2022/01/12 03:13:50;;;;;;;35.60;21.48;;;;;;;4.22;72.02;103613.34;5108218;27;20075;-70
2022/01/12 03:16:22;;;;;;;33.83;21.45;;;;;;;4.24;72.21;103622.28;5126267;27;20102;-70
2022/01/12 03:18:51;;;;;;;32.15;20.75;;;;;;;4.21;72.39;103628.09;5109816;28;20375;-70
2022/01/12 03:21:21;;;;;;;34.05;21.50;;;;;;;4.21;72.83;103625.34;5104358;28;20024;-70
2022/01/12 03:23:46;;;;;;;31.05;20.13;;;;;;;4.25;72.50;103629.56;5111609;28;20035;-71
2022/01/12 03:26:12;;;;;;;35.63;21.58;;;;;;;4.23;72.19;103630.69;5106860;28;20086;-71
2022/01/12 03:28:40;;;;;;;32.20;21.75;;;;;;;4.25;72.15;103637.81;5097113;28;20035;-70
2022/01/12 03:38:56;;;;;;;36.33;21.77;;;;;;;4.20;72.50;103631.84;5121467;27;20038;-71
2022/01/12 03:41:22;;;;;;;34.70;21.92;;;;;;;4.21;72.17;103622.59;5111862;28;20043;-71
2022/01/12 03:43:48;;;;;;;33.88;22.48;;;;;;;4.23;71.86;103620.56;5106678;28;20031;-70
2022/01/12 03:46:15;;;;;;;35.72;22.33;;;;;;;4.19;72.42;103617.22;5102780;27;20032;-71
2022/01/12 03:48:41;;;;;;;39.25;22.73;;;;;;;4.16;72.35;103612.00;5108533;28;20062;-71
2022/01/12 03:51:06;;;;;;;34.22;22.15;;;;;;;4.16;72.89;103611.16;5112979;27;20031;-70
2022/01/12 03:53:32;;;;;;;37.55;22.70;;;;;;;4.14;72.57;103615.94;5120411;27;20051;-70
2022/01/12 03:55:57;;;;;;;40.42;23.60;;;;;;;4.16;72.78;103620.25;5108653;28;20032;-71
2022/01/12 03:58:22;;;;;;;36.20;22.13;;;;;;;4.16;72.63;103623.00;5092695;28;20082;-71
2022/01/12 04:00:47;;;;;;;38.90;23.92;;;;;;;4.13;73.02;103634.31;5092293;28;20027;-71
2022/01/12 04:03:14;;;;;;;39.45;23.38;;;;;;;4.16;72.94;103645.00;5108433;28;20371;-70
2022/01/12 04:08:19;;;;;;;39.38;23.30;;;;;;;4.15;73.07;103654.25;5102831;28;20050;-71
2022/01/12 04:08:26;;;;;;;37.80;23.45;;;;;;;4.14;72.97;103648.91;5113949;28;20043;-71
2022/01/12 04:10:53;;;;;;;38.50;24.60;;;;;;;4.14;73.37;103648.91;5099982;28;20033;-71
2022/01/12 04:13:22;;;;;;;38.88;23.08;;;;;;;4.13;73.32;103645.31;5092937;28;20028;-71
2022/01/12 04:15:51;;;;;;;39.50;23.67;;;;;;;4.12;73.35;103653.69;5098650;28;20106;-71
2022/01/12 04:18:16;;;;;;;38.90;23.08;;;;;;;4.12;73.68;103650.94;5095812;28;20036;-71
2022/01/12 04:20:49;;;;;;;39.65;24.25;;;;;;;4.14;73.40;103643.41;5092387;28;20020;-71
2022/01/12 04:23:19;;;;;;;39.80;23.55;;;;;;;4.13;73.04;103645.31;5108344;28;20036;-71
2022/01/12 04:25:45;;;;;;;40.80;25.05;;;;;;;4.12;74.03;103650.94;5121827;28;20042;-71
2022/01/12 04:28:10;;;;;;;41.53;25.00;;;;;;;4.08;73.84;103652.22;5123871;28;20122;-71
2022/01/12 04:30:36;;;;;;;43.55;25.48;;;;;;;4.08;73.91;103658.59;5112104;28;20062;-71
2022/01/12 04:33:01;;;;;;;37.30;24.08;;;;;;;4.09;73.79;103648.47;5110207;28;20846;-71
2022/01/12 04:35:31;;;;;;;42.88;26.15;;;;;;;4.11;73.83;103647.31;5105706;28;20032;-71
2022/01/12 04:37:57;;;;;;;37.42;24.63;;;;;;;4.08;73.88;103644.84;5098026;28;20039;-71
2022/01/12 04:40:22;;;;;;;41.97;25.17;;;;;;;4.10;73.86;103639.22;5103526;28;20382;-71
2022/01/12 04:42:47;;;;;;;41.15;26.08;;;;;;;4.13;74.10;103641.69;5111963;28;20035;-71
2022/01/12 04:45:29;;;;;;;40.22;25.40;;;;;;;4.12;73.62;103639.94;5110138;28;20032;-71
2022/01/12 04:50:24;;;;;;;45.58;26.52;;;;;;;4.14;74.21;103649.78;5102126;28;20039;-71
2022/01/12 04:52:51;;;;;;;42.42;25.55;;;;;;;4.16;73.89;103646.88;5101591;28;20062;-70
2022/01/12 04:55:16;;;;;;;40.95;24.95;;;;;;;4.15;74.19;103634.16;5109366;28;20047;-71
2022/01/12 04:57:42;;;;;;;42.60;25.77;;;;;;;4.18;73.54;103633.88;5113130;28;20043;-71
2022/01/12 05:00:14;;;;;;;46.38;26.02;;;;;;;4.15;74.13;103617.66;5116332;28;20097;-71
2022/01/12 05:13:26;;;;;;;44.85;26.63;;;;;;;4.15;74.30;103631.41;5099541;28;20035;-71
2022/01/12 05:15:52;;;;;;;46.67;27.33;;;;;;;4.14;74.26;103630.53;5096461;28;20068;-71
2022/01/12 05:18:18;;;;;;;43.65;27.15;;;;;;;4.13;73.67;103634.31;5110306;27;20113;-71
2022/01/12 05:20:44;;;;;;;44.05;26.70;;;;;;;4.13;74.26;103630.69;5105494;27;20484;-70
2022/01/12 05:23:10;;;;;;;42.70;26.40;;;;;;;4.16;74.26;103628.50;5115659;27;20038;-71
2022/01/12 05:25:35;;;;;;;45.58;28.15;;;;;;;4.14;74.28;103635.19;5109788;28;20024;-71
2022/01/12 05:28:00;;;;;;;50.22;27.77;;;;;;;4.13;74.35;103637.06;5096032;28;20383;-71
2022/01/12 05:30:26;;;;;;;45.92;27.58;;;;;;;4.14;74.24;103630.53;5101970;27;20032;-71
2022/01/12 05:32:51;;;;;;;50.55;28.45;;;;;;;4.13;73.86;103637.06;5119608;27;20446;-71
2022/01/12 05:35:18;;;;;;;47.30;28.17;;;;;;;4.14;74.17;103649.78;5111080;27;20031;-71
2022/01/12 05:37:44;;;;;;;46.63;27.38;;;;;;;4.11;74.11;103647.31;5112881;28;20081;-71
2022/01/12 05:40:11;;;;;;;45.35;28.52;;;;;;;4.11;74.29;103661.06;5113166;27;20042;-71
2022/01/12 05:42:37;;;;;;;48.00;29.17;;;;;;;4.13;74.65;103656.31;5105119;28;20028;-71
2022/01/12 05:45:06;;;;;;;49.72;28.13;;;;;;;4.17;74.24;103663.25;5107939;27;20112;-71
2022/01/12 05:49:33;;;;;;;45.92;28.83;;;;;;;4.19;74.24;103658.47;5130472;27;20031;-71
2022/01/12 05:50:24;;;;;;;47.85;28.35;;;;;;;4.16;74.32;103663.38;5117646;27;20035;-71
2022/01/12 05:52:57;;;;;;;49.28;29.27;;;;;;;4.17;74.07;103666.00;5120418;27;20032;-70
2022/01/12 05:55:23;;;;;;;48.05;29.52;;;;;;;4.14;74.41;103663.53;5109639;28;20495;-71
2022/01/12 05:57:48;;;;;;;46.75;28.08;;;;;;;4.16;74.54;103661.50;5099941;28;20030;-71
2022/01/12 06:00:17;;;;;;;47.90;29.75;;;;;;;4.21;74.54;103660.22;5105811;27;20077;-70
2022/01/12 06:02:42;;;;;;;48.63;29.55;;;;;;;4.23;74.31;103655.44;5105315;27;20107;-71
2022/01/12 06:05:08;;;;;;;48.70;30.10;;;;;;;4.22;74.20;103656.47;5105983;27;20463;-70
2022/01/12 06:07:34;;;;;;;50.13;30.25;;;;;;;4.21;74.46;103666.59;5097839;28;20777;-70
2022/01/12 06:09:59;;;;;;;49.08;29.35;;;;;;;4.21;74.62;103662.97;5108876;28;20111;-71
2022/01/12 06:12:24;;;;;;;49.22;29.45;;;;;;;4.23;74.26;103667.28;5111782;28;20474;-71
2022/01/12 06:14:49;;;;;;;49.92;30.10;;;;;;;4.19;74.27;103666.72;5106683;27;20471;-72
2022/01/12 06:17:15;;;;;;;47.10;29.50;;;;;;;4.17;74.40;103666.00;5112401;28;20031;-71
2022/01/12 06:19:40;;;;;;;51.85;30.55;;;;;;;4.18;74.59;103673.22;5115151;28;20102;-71
2022/01/12 06:22:06;;;;;;;50.55;29.92;;;;;;;4.15;74.62;103678.13;5116816;27;20784;-71
2022/01/12 06:24:32;;;;;;;48.63;31.02;;;;;;;4.16;74.93;103682.63;5109099;27;20431;-74
2022/01/12 06:26:58;;;;;;;51.03;30.35;;;;;;;4.17;74.61;103688.00;5107418;28;20031;-74
2022/01/12 06:29:31;;;;;;;52.35;31.67;;;;;;;4.19;74.65;103685.94;5108340;27;20039;-71
2022/01/12 06:31:57;;;;;;;51.83;30.35;;;;;;;4.19;74.81;103696.94;5103524;28;20073;-74
2022/01/12 06:34:22;;;;;;;52.08;31.33;;;;;;;4.23;74.85;103699.44;5101833;28;20027;-71
2022/01/12 06:36:48;;;;;;;50.70;31.35;;;;;;;4.23;74.39;103707.66;5103815;27;20036;-73
2022/01/12 06:39:20;;;;;;;50.65;31.35;;;;;;;4.22;74.90;103703.19;5107418;28;20585;-74
2022/01/12 06:41:46;;;;;;;49.20;30.13;;;;;;;4.23;74.56;103724.16;5104594;28;20046;-71
2022/01/12 06:44:16;;;;;;;48.47;29.73;;;;;;;4.21;74.60;103726.22;5104082;27;20023;-69
2022/01/12 06:46:43;;;;;;;49.45;30.33;;;;;;;4.22;74.80;103733.44;5107093;27;20031;-70
2022/01/12 06:49:08;;;;;;;50.13;30.73;;;;;;;4.22;74.81;103736.19;5099639;28;20035;-71
2022/01/12 06:51:34;;;;;;;47.38;29.15;;;;;;;4.23;74.63;103735.16;5104845;27;20027;-71
2022/01/12 06:53:59;;;;;;;57.45;31.48;;;;;;;4.21;74.80;103731.72;5105615;27;20055;-70
2022/01/12 06:56:24;;;;;;;51.92;31.25;;;;;;;4.22;74.75;103722.44;5106230;28;20019;-69
2022/01/12 06:58:50;;;;;;;53.75;31.33;;;;;;;4.18;75.13;103728.22;5113923;28;20039;-68
2022/01/12 07:01:15;;;;;;;50.80;30.42;;;;;;;4.21;75.30;103731.72;5111887;27;20020;-71
2022/01/12 07:03:40;;;;;;;48.17;30.20;;;;;;;4.22;74.78;103742.53;5109025;27;20027;-71
2022/01/12 07:06:06;;;;;;;50.50;30.20;;;;;;;4.22;75.11;103739.78;5109730;28;20169;-74
2022/01/12 07:08:34;;;;;;;55.25;33.03;;;;;;;4.19;75.21;103740.06;5104779;27;20016;-72
2022/01/12 07:11:00;;;;;;;49.10;30.08;;;;;;;4.21;75.09;103745.44;5100734;27;20077;-70
2022/01/12 07:13:25;;;;;;;51.45;31.02;;;;;;;4.22;74.90;103755.44;5099879;28;20039;-70
2022/01/12 07:15:51;;;;;;;52.70;30.73;;;;;;;4.22;75.35;103755.44;5107291;28;20073;-72
2022/01/12 07:18:16;;;;;;;52.33;31.63;;;;;;;4.23;75.13;103757.16;5099845;28;20027;-70
2022/01/12 07:20:42;;;;;;;51.22;30.27;;;;;;;4.21;75.26;103748.19;5104850;28;20075;-71
2022/01/12 07:23:07;;;;;;;49.63;30.38;;;;;;;4.24;75.18;103753.38;5098399;28;20390;-66
2022/01/12 07:25:32;;;;;;;48.92;29.92;;;;;;;4.21;74.91;103751.81;5099546;28;20024;-67
2022/01/12 07:27:58;;;;;;;49.47;30.60;;;;;;;4.24;75.37;103758.88;5109010;28;20023;-67
2022/01/12 07:30:24;;;;;;;48.72;30.75;;;;;;;4.22;75.16;103760.94;5107458;27;20023;-67
2022/01/12 07:32:51;;;;;;;52.13;31.55;;;;;;;4.23;75.20;103765.41;5098070;28;20050;-67
2022/01/12 07:35:17;;;;;;;47.90;30.85;;;;;;;4.22;74.93;103764.53;5106251;28;20120;-67
2022/01/12 07:37:42;;;;;;;52.28;30.67;;;;;;;4.22;75.55;103772.78;5097860;28;20080;-67
2022/01/12 07:40:08;;;;;;;51.00;31.67;;;;;;;4.22;75.51;103777.41;5098292;28;20374;-67
2022/01/12 07:42:34;;;;;;;52.15;31.70;;;;;;;4.20;75.34;103791.28;5101574;28;20462;-67
2022/01/12 07:45:01;;;;;;;49.90;31.15;;;;;;;4.23;75.22;103791.03;5112609;27;20020;-67
2022/01/12 07:47:28;;;;;;;50.22;31.67;;;;;;;4.21;75.92;103787.56;5100278;27;20467;-69
2022/01/12 07:49:54;;;;;;;53.78;30.58;;;;;;;4.23;75.72;103802.00;5102720;28;20051;-69
2022/01/12 07:52:20;;;;;;;53.25;31.58;;;;;;;4.22;75.85;103793.91;5096345;28;20027;-68
2022/01/12 07:54:45;;;;;;;55.05;31.90;;;;;;;4.27;75.53;103806.22;5107466;28;20043;-69
2022/01/12 07:57:10;;;;;;;56.30;33.55;;;;;;;4.28;75.19;103807.97;5094760;28;20401;-68
2022/01/12 07:59:36;;;;;;;56.78;34.40;;;;;;;4.29;75.64;103819.84;5103433;28;20046;-68
2022/01/12 08:02:01;;;;;;;55.72;32.83;;;;;;;4.31;75.12;103817.81;5101466;28;20477;-68
2022/01/12 08:04:27;;;;;;;54.55;32.72;;;;;;;4.29;75.43;103828.09;5094806;28;20020;-69
2022/01/12 08:06:56;;;;;;;55.35;32.97;;;;;;;4.30;75.54;103830.69;5093849;28;20442;-68
2022/01/12 08:09:23;;;;;;;58.92;33.63;;;;;;;4.30;75.55;103833.44;5105603;27;20027;-68
2022/01/12 08:11:52;;;;;;;61.88;33.28;;;;;;;4.30;75.55;103827.09;5126318;28;20062;-68
2022/01/12 08:14:18;;;;;;;58.03;34.35;;;;;;;4.32;75.61;103838.81;5095264;28;20060;-68
2022/01/12 08:16:43;;;;;;;58.35;33.30;;;;;;;4.33;75.09;103851.56;5102692;28;20062;-68
2022/01/12 08:19:11;;;;;;;56.70;33.88;;;;;;;4.35;75.70;103849.53;5108282;28;20116;-69
2022/01/12 08:21:37;;;;;;;63.00;35.58;;;;;;;4.36;75.89;103862.25;5106331;28;20031;-70
2022/01/12 08:24:02;;;;;;;66.07;34.55;;;;;;;4.37;75.33;103858.53;5107708;28;20470;-70
2022/01/12 08:26:28;;;;;;;63.80;34.60;;;;;;;4.36;75.90;103856.75;5105155;28;20482;-67
2022/01/12 08:28:56;;;;;;;64.20;34.58;;;;;;;4.41;75.74;103860.00;5102296;28;20056;-69
2022/01/12 08:31:21;;;;;;;70.20;35.28;;;;;;;4.38;76.16;103861.13;5105192;28;20031;-70
2022/01/12 08:33:48;;;;;;;69.93;37.00;;;;;;;4.36;76.18;103860.41;5107584;28;20374;-71
2022/01/12 08:36:15;;;;;;;72.72;37.20;;;;;;;4.33;76.56;103860.69;5103063;28;20387;-70
2022/01/12 08:38:41;;;;;;;73.75;37.92;;;;;;;4.37;76.43;103864.03;5099790;28;20467;-70
2022/01/12 08:41:06;;;;;;;71.15;36.50;;;;;;;4.36;76.39;103857.66;5114647;27;20046;-69
2022/01/12 08:43:31;;;;;;;69.65;37.25;;;;;;;4.34;76.40;103853.28;5111427;27;20032;-70
2022/01/12 08:45:57;;;;;;;74.57;36.85;;;;;;;4.34;76.27;103856.03;5104699;28;20423;-68
2022/01/12 08:48:22;;;;;;;75.75;37.58;;;;;;;4.37;76.85;103858.53;5104754;28;20036;-69
2022/01/12 08:50:48;;;;;;;62.65;35.75;;;;;;;4.36;76.25;103856.75;5110241;28;20024;-71
2022/01/12 08:53:13;;;;;;;70.43;37.22;;;;;;;4.34;76.96;103862.41;5100676;28;20479;-66
2022/01/12 08:55:39;;;;;;;75.53;37.40;;;;;;;4.34;76.92;103858.78;5110519;28;20032;-68
2022/01/12 08:58:04;;;;;;;75.70;38.55;;;;;;;4.36;77.26;103862.25;5100871;28;20028;-64
2022/01/12 09:00:29;;;;;;;71.65;37.83;;;;;;;4.38;77.43;103860.25;5099124;28;20036;-64
2022/01/12 09:02:55;;;;;;;71.57;37.70;;;;;;;4.41;77.21;103871.00;5112364;28;20442;-62
2022/01/12 09:05:20;;;;;;;67.18;36.63;;;;;;;4.45;77.22;103866.09;5108364;28;20066;-65
2022/01/12 09:07:45;;;;;;;72.70;37.42;;;;;;;4.45;77.14;103875.19;5110610;27;20118;-64
2022/01/12 09:10:12;;;;;;;70.25;36.75;;;;;;;4.48;77.13;103876.78;5101520;27;20558;-67
2022/01/12 09:12:38;;;;;;;73.45;36.70;;;;;;;4.48;77.38;103888.69;5112732;28;20032;-64
2022/01/12 09:15:08;;;;;;;73.93;36.70;;;;;;;4.51;77.63;103888.38;5099990;28;20035;-65
2022/01/12 09:17:34;;;;;;;73.70;37.25;;;;;;;4.56;77.58;103898.97;5112685;28;20481;-65
2022/01/12 09:20:00;;;;;;;71.40;36.72;;;;;;;4.54;77.52;103909.25;5111394;27;20024;-67
2022/01/12 09:22:25;;;;;;;66.10;34.80;;;;;;;4.57;77.87;103907.09;5101736;28;20027;-65
2022/01/12 09:24:51;;;;;;;65.05;33.70;;;;;;;4.59;77.58;103909.69;5110046;28;20031;-64
2022/01/12 09:27:19;;;;;;;72.13;36.08;;;;;;;4.58;77.83;103906.09;5113053;27;20092;-65
2022/01/12 09:29:45;;;;;;;67.32;34.92;;;;;;;4.57;77.75;103915.34;5114613;28;20074;-64
2022/01/12 09:32:11;;;;;;;72.82;36.65;;;;;;;4.60;78.00;103915.09;5102022;28;20024;-66
2022/01/12 09:34:37;;;;;;;72.28;35.50;;;;;;;4.63;77.66;103920.28;5097364;28;20019;-65
2022/01/12 09:37:03;;;;;;;65.65;33.50;;;;;;;4.64;77.59;103924.81;5106875;28;20028;-65
2022/01/12 09:39:29;;;;;;;65.85;33.00;;;;;;;4.63;77.95;103928.53;5111128;27;20028;-66
2022/01/12 09:41:56;;;;;;;64.00;33.17;;;;;;;4.65;78.33;103925.66;5101042;28;20024;-67
2022/01/12 09:44:28;;;;;;;65.63;31.75;;;;;;;4.64;78.03;103927.56;5107245;28;20032;-68
2022/01/12 09:46:54;;;;;;;64.70;32.67;;;;;;;4.66;77.73;103927.41;5101596;28;20027;-68
2022/01/12 09:49:19;;;;;;;60.95;32.28;;;;;;;4.68;78.09;103923.50;5112396;27;20102;-65
2022/01/12 09:51:44;;;;;;;59.67;33.03;;;;;;;4.67;77.82;103924.50;5099321;28;20484;-69
2022/01/12 09:54:11;;;;;;;52.10;30.48;;;;;;;4.71;77.75;103929.72;5103189;27;20087;-70
2022/01/12 09:56:37;;;;;;;54.72;29.40;;;;;;;4.69;77.81;103932.63;5102620;28;20027;-67
2022/01/12 09:59:02;;;;;;;56.17;29.95;;;;;;;4.68;78.19;103934.50;5105148;28;20055;-67
2022/01/12 10:01:31;;;;;;;51.08;29.23;;;;;;;4.74;77.85;103940.47;5106807;28;20027;-64
2022/01/12 10:04:08;;;;;;;51.60;27.98;;;;;;;4.75;77.80;103950.44;5103190;27;20049;-68
2022/01/12 10:06:41;;;;;;;43.42;24.95;;;;;;;4.73;78.11;103955.25;5101323;28;20035;-65
2022/01/12 10:09:06;;;;;;;43.78;25.08;;;;;;;4.76;77.78;103960.47;5096802;28;20112;-65
2022/01/12 10:11:33;;;;;;;42.22;25.10;;;;;;;4.74;77.76;103963.34;5109155;28;20062;-64
2022/01/12 10:14:00;;;;;;;45.72;24.70;;;;;;;4.73;77.96;103969.00;5106592;28;20047;-64
2022/01/12 10:16:28;;;;;;;44.47;24.88;;;;;;;4.75;77.58;103962.31;5114718;27;20489;-64
2022/01/12 10:18:57;;;;;;;46.58;24.80;;;;;;;4.74;77.93;103970.72;5100759;28;20097;-66
2022/01/12 10:21:35;;;;;;;39.65;24.00;;;;;;;4.79;77.81;103961.03;5112959;28;20106;-66
2022/01/12 10:24:04;;;;;;;39.67;23.67;;;;;;;4.79;77.96;103957.41;5101558;28;20036;-66
2022/01/12 10:26:32;;;;;;;36.97;22.40;;;;;;;4.80;77.64;103959.19;5104935;28;20032;-65
2022/01/12 10:29:02;;;;;;;39.67;23.13;;;;;;;4.81;77.91;103955.41;5103206;28;20015;-65
2022/01/12 10:31:28;;;;;;;42.63;22.95;;;;;;;4.81;78.06;103955.41;5093966;28;20063;-67
2022/01/12 10:34:02;;;;;;;52.88;23.08;;;;;;;4.78;78.09;103945.53;5094752;28;20507;-69
2022/01/12 10:36:37;;;;;;;42.17;24.10;;;;;;;4.80;78.49;103945.44;5100771;28;20030;-64
2022/01/12 10:39:11;;;;;;;41.33;23.85;;;;;;;4.81;78.16;103941.66;5097849;27;20119;-64
2022/01/12 10:41:40;;;;;;;41.60;24.70;;;;;;;4.83;78.03;103947.88;5096952;27;20023;-64
2022/01/12 10:44:06;;;;;;;43.03;23.27;;;;;;;4.83;77.77;103947.88;5101394;28;20024;-64
2022/01/12 10:46:31;;;;;;;43.17;24.10;;;;;;;4.83;78.00;103947.88;5102375;27;20050;-66
2022/01/12 10:48:58;;;;;;;42.42;23.88;;;;;;;4.83;77.82;103954.25;5104207;27;21237;-66
2022/01/12 10:51:28;;;;;;;42.60;24.23;;;;;;;4.83;78.23;103956.13;5105902;28;20032;-65
2022/01/12 10:54:00;;;;;;;41.28;23.73;;;;;;;4.84;78.23;103960.66;5105148;27;20154;-64
2022/01/12 10:56:25;;;;;;;47.13;26.08;;;;;;;4.80;77.89;103950.94;5096392;28;20625;-66
2022/01/12 10:58:54;;;;;;;44.40;24.73;;;;;;;4.88;78.50;103959.34;5096806;28;20035;-65
2022/01/12 11:01:22;;;;;;;45.95;24.10;;;;;;;4.83;77.88;103965.25;5104838;28;20459;-67
2022/01/12 11:03:48;;;;;;;45.70;25.42;;;;;;;4.84;77.84;103969.78;5095115;28;20027;-67
2022/01/12 11:06:13;;;;;;;43.17;24.15;;;;;;;4.85;77.98;103971.50;5107889;28;20051;-67
2022/01/12 11:08:40;;;;;;;45.58;24.90;;;;;;;4.83;77.79;103975.41;5106780;28;20463;-65
2022/01/12 11:11:06;;;;;;;44.63;23.98;;;;;;;4.84;77.71;103957.91;5091002;28;20023;-67
2022/01/12 11:13:32;;;;;;;49.85;26.85;;;;;;;4.83;77.77;103953.38;5100766;28;20016;-66
2022/01/12 11:15:58;;;;;;;48.35;25.98;;;;;;;4.85;77.45;103957.75;5091980;28;20028;-68
2022/01/12 11:18:33;;;;;;;49.35;26.30;;;;;;;4.83;77.97;103961.63;5095114;27;20023;-67
2022/01/12 11:21:03;;;;;;;48.75;26.20;;;;;;;4.85;77.68;103951.38;5101412;28;20019;-67
2022/01/12 11:23:41;;;;;;;49.72;26.27;;;;;;;4.88;77.60;103957.47;5107365;28;20032;-68
2022/01/12 11:26:17;;;;;;;53.38;25.67;;;;;;;4.86;77.44;103962.22;5104835;28;20043;-71
2022/01/12 11:28:43;;;;;;;50.72;25.15;;;;;;;4.84;77.15;103971.66;5101599;27;20034;-67
2022/01/12 11:31:09;;;;;;;49.53;25.20;;;;;;;4.82;76.98;103973.66;5100119;27;20032;-66
2022/01/12 11:33:34;;;;;;;48.78;24.65;;;;;;;4.82;77.06;103974.53;5095171;27;20097;-64
2022/01/12 11:36:11;;;;;;;54.47;26.10;;;;;;;4.84;77.29;103969.78;5097648;28;20028;-63
2022/01/12 11:38:36;;;;;;;53.38;27.20;;;;;;;4.87;76.91;103972.25;5103387;28;20084;-64
2022/01/12 11:41:09;;;;;;;55.30;25.95;;;;;;;4.90;76.92;103977.44;5098390;28;20020;-66
2022/01/12 11:43:59;;;;;;;52.58;25.40;;;;;;;4.93;77.14;103973.56;5104318;28;20122;-66
2022/01/12 11:46:27;;;;;;;52.38;25.67;;;;;;;4.94;76.86;103967.03;5096879;27;20020;-66
2022/01/12 11:48:58;;;;;;;56.75;26.42;;;;;;;4.90;77.05;103966.44;5099803;28;20023;-64
2022/01/12 11:51:39;;;;;;;48.67;25.60;;;;;;;4.96;76.98;103961.41;5103482;28;20016;-64
2022/01/12 11:54:14;;;;;;;55.95;26.67;;;;;;;4.91;76.60;103945.28;5101799;28;20504;-65
2022/01/12 11:56:54;;;;;;;52.60;26.42;;;;;;;4.95;77.10;103952.25;5096773;28;20035;-63
2022/01/12 11:59:20;;;;;;;55.90;26.23;;;;;;;4.97;76.58;103944.75;5102952;28;20020;-67
2022/01/12 12:01:50;;;;;;;49.65;26.15;;;;;;;4.97;76.57;103953.00;5106895;28;20023;-68
2022/01/12 12:04:27;;;;;;;51.63;25.80;;;;;;;4.99;76.70;103959.25;5103675;28;20042;-69
2022/01/12 12:07:15;;;;;;;54.25;26.05;;;;;;;5.03;76.23;103965.31;5108245;28;20039;-65
2022/01/12 12:09:43;;;;;;;49.95;25.08;;;;;;;5.05;76.34;103955.06;5103619;28;20039;-66
2022/01/12 12:12:18;;;;;;;55.05;25.85;;;;;;;5.07;76.13;103961.28;5104666;28;20032;-64
2022/01/12 12:14:53;;;;;;;50.80;25.25;;;;;;;5.08;75.88;103966.66;5105949;28;20403;-64
2022/01/12 12:17:19;;;;;;;46.75;24.65;;;;;;;5.09;75.92;103960.13;5104701;28;20028;-65
2022/01/12 12:19:46;;;;;;;51.85;25.50;;;;;;;5.04;76.05;103961.59;5100266;28;20059;-64
2022/01/12 12:22:19;;;;;;;48.95;25.60;;;;;;;5.04;76.00;103962.44;5106563;28;20024;-68
2022/01/12 12:24:52;;;;;;;52.63;25.67;;;;;;;5.05;76.00;103968.81;5113158;28;20023;-68
2022/01/12 12:27:19;;;;;;;49.45;24.88;;;;;;;5.03;75.88;103966.22;5106700;27;20030;-67
2022/01/12 12:29:48;;;;;;;50.22;23.20;;;;;;;5.04;75.91;103967.97;5115688;27;20067;-65
2022/01/12 12:32:13;;;;;;;43.22;22.63;;;;;;;5.06;75.84;103963.16;5107570;28;20031;-68
2022/01/12 12:34:41;;;;;;;48.95;23.95;;;;;;;5.07;75.58;103961.28;5095672;28;20363;-67
2022/01/12 12:37:11;;;;;;;47.35;25.08;;;;;;;5.05;75.50;103957.81;5110390;28;20067;-67